Preview of NWS' New Version of Forecast
This preview is not operational and should not be used for support decisions.

Terminal Aerodrome Forecast (TAF)

Issued by National Weather Service (NWS)

                            
669 
FTUS42 KKEY 251121
TAFMTH
TAF
KMTH 251121Z 2512/2612 12009KT P6SM SCT025
     FM252100 12007KT P6SM FEW020=